Time;durP1;ratioP1;P1;durP2;ratioP2;P2;SDS_P1;SDS_P2;PMS_P1;PMS_P2;Temp;Humidity;BMP_temperature;BMP_pressure;BME280_temperature;BME280_humidity;BME280_pressure;Samples;Min_cycle;Max_cycle;Signal;HPM_P1;HPM_P2
2023/08/08 00:00:10;;;;;;;5.03;1.77;;;13.80;99.90;;;;;;5109474;28;20404;-72
2023/08/08 00:02:36;;;;;;;4.43;1.58;;;13.80;99.90;;;;;;5107340;27;20516;-72
2023/08/08 00:05:02;;;;;;;4.73;1.90;;;13.80;99.90;;;;;;5103358;28;20485;-72
2023/08/08 00:07:30;;;;;;;5.68;1.80;;;13.80;99.90;;;;;;5103773;28;20489;-72
2023/08/08 00:09:56;;;;;;;5.63;1.88;;;13.80;99.90;;;;;;5110225;28;20473;-73
2023/08/08 00:12:22;;;;;;;4.45;1.88;;;13.70;99.90;;;;;;5097444;27;20459;-72
2023/08/08 00:14:48;;;;;;;6.05;1.80;;;13.70;99.90;;;;;;5088697;28;20400;-72
2023/08/08 00:17:13;;;;;;;5.30;2.23;;;13.70;99.90;;;;;;5085977;28;20749;-72
2023/08/08 00:19:39;;;;;;;5.75;2.20;;;13.70;99.90;;;;;;5087229;28;20432;-72
2023/08/08 00:22:05;;;;;;;6.20;1.85;;;13.70;99.90;;;;;;5104275;28;20429;-73
2023/08/08 00:24:31;;;;;;;6.03;2.00;;;13.70;99.90;;;;;;5097441;28;20404;-72
2023/08/08 00:26:57;;;;;;;6.03;1.90;;;13.70;99.90;;;;;;5093156;28;20927;-72
2023/08/08 00:29:22;;;;;;;6.75;2.13;;;13.70;99.90;;;;;;5103618;28;20851;-72
2023/08/08 00:31:48;;;;;;;7.10;2.33;;;13.70;99.90;;;;;;5101542;28;20418;-72
2023/08/08 00:34:14;;;;;;;5.93;2.10;;;13.70;99.90;;;;;;5103660;28;20465;-72
2023/08/08 00:36:39;;;;;;;6.70;2.10;;;13.60;99.90;;;;;;5101326;28;20406;-72
2023/08/08 00:39:05;;;;;;;4.85;2.42;;;13.60;99.90;;;;;;5104840;28;20499;-73
2023/08/08 00:41:30;;;;;;;7.43;2.30;;;13.60;99.90;;;;;;5103144;28;21013;-72
2023/08/08 00:43:56;;;;;;;5.43;2.20;;;13.60;99.90;;;;;;5104034;28;20485;-72
2023/08/08 00:46:24;;;;;;;8.23;2.55;;;13.60;99.90;;;;;;5102284;28;20401;-72
2023/08/08 00:48:51;;;;;;;6.33;2.70;;;13.60;99.90;;;;;;5094744;28;20401;-72
2023/08/08 00:51:18;;;;;;;6.18;2.40;;;13.60;99.90;;;;;;5101416;28;20923;-72
2023/08/08 00:53:44;;;;;;;7.18;2.20;;;13.50;99.90;;;;;;5097241;28;20923;-72
2023/08/08 00:56:13;;;;;;;5.67;2.07;;;13.50;99.90;;;;;;5098249;28;20528;-72
2023/08/08 00:58:39;;;;;;;8.07;2.20;;;13.50;99.90;;;;;;5094051;28;20910;-72
2023/08/08 01:01:05;;;;;;;7.18;2.25;;;13.50;99.90;;;;;;5098695;28;20493;-72
2023/08/08 01:03:30;;;;;;;6.25;2.20;;;13.50;99.90;;;;;;5091908;28;20883;-72
2023/08/08 01:06:05;;;;;;;5.77;2.33;;;13.50;99.90;;;;;;5080762;28;20410;-72
2023/08/08 01:08:57;;;;;;;7.70;2.33;;;13.50;99.90;;;;;;5101318;28;20412;-72
2023/08/08 01:11:24;;;;;;;5.47;2.55;;;13.60;99.90;;;;;;5090773;28;20406;-72
2023/08/08 01:13:53;;;;;;;5.95;2.65;;;13.60;99.90;;;;;;5099431;28;20950;-72
2023/08/08 01:16:20;;;;;;;7.93;2.55;;;13.60;99.90;;;;;;5105624;28;20404;-72
2023/08/08 01:18:48;;;;;;;6.00;2.40;;;13.60;99.90;;;;;;5104503;28;20404;-72
2023/08/08 01:21:15;;;;;;;7.37;2.40;;;13.50;99.90;;;;;;5105599;28;20457;-72
2023/08/08 01:23:53;;;;;;;7.65;2.17;;;13.50;99.90;;;;;;5102978;28;20899;-72
2023/08/08 01:26:21;;;;;;;6.53;2.10;;;13.60;99.90;;;;;;5102800;27;20413;-72
2023/08/08 01:28:47;;;;;;;5.80;2.17;;;13.60;99.90;;;;;;5100312;28;20504;-72
2023/08/08 01:31:12;;;;;;;4.90;2.05;;;13.60;99.90;;;;;;5106091;28;20742;-72
2023/08/08 01:33:38;;;;;;;5.90;2.17;;;13.60;99.90;;;;;;5089830;28;20841;-72
2023/08/08 01:36:13;;;;;;;5.77;2.17;;;13.60;99.90;;;;;;5105395;28;20401;-72
2023/08/08 01:38:44;;;;;;;5.55;2.22;;;13.60;99.90;;;;;;5100462;28;20449;-72
2023/08/08 01:41:10;;;;;;;7.47;2.30;;;13.60;99.90;;;;;;5096046;28;20894;-72
2023/08/08 01:43:38;;;;;;;6.40;2.17;;;13.60;99.90;;;;;;5097143;28;20487;-72
2023/08/08 01:46:05;;;;;;;5.43;2.55;;;13.60;99.90;;;;;;5097388;28;20400;-72
2023/08/08 01:48:31;;;;;;;5.38;2.00;;;13.60;99.90;;;;;;5099863;28;20402;-72
2023/08/08 01:50:56;;;;;;;7.40;2.00;;;13.60;99.90;;;;;;5103401;28;20400;-72
2023/08/08 01:53:22;;;;;;;6.28;1.98;;;13.60;99.90;;;;;;5097139;28;20398;-72
2023/08/08 01:55:48;;;;;;;4.87;2.53;;;13.60;99.90;;;;;;5097693;28;20841;-72
2023/08/08 01:58:13;;;;;;;4.38;2.08;;;13.60;99.90;;;;;;5099555;28;20398;-72
2023/08/08 02:00:40;;;;;;;4.13;2.33;;;13.70;99.90;;;;;;5102912;28;20404;-72
2023/08/08 02:03:06;;;;;;;6.13;2.17;;;13.70;99.90;;;;;;5097695;28;20433;-72
2023/08/08 02:05:32;;;;;;;5.75;2.38;;;13.70;99.90;;;;;;5101908;28;20431;-72
2023/08/08 02:07:58;;;;;;;6.27;2.20;;;13.70;99.90;;;;;;5096847;28;20455;-72
2023/08/08 02:10:24;;;;;;;5.70;2.45;;;13.70;99.90;;;;;;5094645;28;20490;-72
2023/08/08 02:12:49;;;;;;;6.43;2.35;;;13.70;99.90;;;;;;5088858;28;20415;-72
2023/08/08 02:15:15;;;;;;;5.83;2.60;;;13.70;99.90;;;;;;5104367;28;20924;-72
2023/08/08 02:17:41;;;;;;;6.22;2.55;;;13.70;99.90;;;;;;5101883;28;20400;-72
2023/08/08 02:20:07;;;;;;;6.40;2.40;;;13.70;99.90;;;;;;5105341;28;20804;-72
2023/08/08 02:22:33;;;;;;;5.15;2.40;;;13.70;99.90;;;;;;5097329;28;20432;-72
2023/08/08 02:24:59;;;;;;;6.15;2.30;;;13.80;99.90;;;;;;5100358;28;20459;-72
2023/08/08 02:27:25;;;;;;;4.93;2.30;;;13.80;99.90;;;;;;5084489;28;20927;-72
2023/08/08 02:29:50;;;;;;;7.30;2.45;;;13.80;99.90;;;;;;5088586;28;20414;-72
2023/08/08 02:32:16;;;;;;;6.90;2.33;;;13.80;99.90;;;;;;5095415;28;20480;-72
2023/08/08 02:34:42;;;;;;;5.13;2.30;;;13.90;99.90;;;;;;5095177;28;20402;-72
2023/08/08 02:37:08;;;;;;;4.25;1.98;;;13.90;99.90;;;;;;5087911;28;20409;-72
2023/08/08 02:39:34;;;;;;;6.05;2.17;;;13.90;99.90;;;;;;5092204;28;20457;-72
2023/08/08 02:41:59;;;;;;;6.05;2.20;;;13.90;99.90;;;;;;5101670;28;20816;-72
2023/08/08 02:44:25;;;;;;;4.83;1.80;;;13.90;99.90;;;;;;5092928;28;20409;-72
2023/08/08 02:46:51;;;;;;;5.95;2.00;;;13.90;99.90;;;;;;5104742;28;20399;-72
2023/08/08 02:49:16;;;;;;;5.07;1.60;;;13.90;99.90;;;;;;5099885;28;20402;-72
2023/08/08 02:51:42;;;;;;;5.10;2.03;;;13.90;99.90;;;;;;5104802;28;20402;-71
2023/08/08 02:54:08;;;;;;;6.10;1.70;;;13.90;99.90;;;;;;5100077;28;20485;-71
2023/08/08 02:56:33;;;;;;;4.10;1.73;;;13.90;99.90;;;;;;5104337;28;20443;-71
2023/08/08 02:58:59;;;;;;;4.17;1.40;;;14.00;99.90;;;;;;5100411;28;20406;-72
2023/08/08 03:01:24;;;;;;;6.80;1.97;;;14.00;99.90;;;;;;5091585;28;20815;-72
2023/08/08 03:03:50;;;;;;;5.75;1.60;;;14.00;99.90;;;;;;5104229;28;20420;-72
2023/08/08 03:06:16;;;;;;;5.65;1.60;;;14.00;99.90;;;;;;5099852;28;20908;-73
2023/08/08 03:08:42;;;;;;;5.10;1.67;;;13.90;99.90;;;;;;5097063;28;20398;-73
2023/08/08 03:11:07;;;;;;;4.45;1.55;;;14.00;99.90;;;;;;5097390;28;20454;-73
2023/08/08 03:13:33;;;;;;;5.33;1.83;;;13.90;99.90;;;;;;5085405;28;20393;-73
2023/08/08 03:15:58;;;;;;;6.63;2.10;;;13.90;99.90;;;;;;5089827;28;20519;-73
2023/08/08 03:18:25;;;;;;;7.22;1.83;;;13.90;99.90;;;;;;5094080;28;20452;-73
2023/08/08 03:20:52;;;;;;;4.47;1.58;;;13.90;99.90;;;;;;5097358;28;20420;-73
2023/08/08 03:23:18;;;;;;;7.65;1.55;;;13.90;99.90;;;;;;5096714;28;20410;-71
2023/08/08 03:25:43;;;;;;;5.32;1.70;;;13.90;99.90;;;;;;5095637;28;20404;-72
2023/08/08 03:28:09;;;;;;;7.50;1.63;;;13.90;99.90;;;;;;5095844;28;20402;-72
2023/08/08 03:30:37;;;;;;;6.28;1.73;;;13.90;99.90;;;;;;5094316;28;20423;-70
2023/08/08 03:33:03;;;;;;;4.75;1.50;;;13.90;99.90;;;;;;5102382;28;20393;-71
2023/08/08 03:35:29;;;;;;;7.82;1.90;;;13.90;99.90;;;;;;5089703;28;20408;-71
2023/08/08 03:37:54;;;;;;;5.00;1.73;;;13.90;99.90;;;;;;5103632;28;20395;-71
2023/08/08 03:40:20;;;;;;;5.80;1.85;;;13.90;99.90;;;;;;5100419;28;20394;-71
2023/08/08 03:42:46;;;;;;;6.27;1.50;;;13.80;99.90;;;;;;5102736;28;20929;-71
2023/08/08 03:45:11;;;;;;;3.67;1.37;;;13.80;99.90;;;;;;5099962;28;20398;-71
2023/08/08 03:47:37;;;;;;;5.22;1.52;;;13.80;99.90;;;;;;5104287;28;20409;-71
2023/08/08 03:50:04;;;;;;;5.73;1.77;;;13.80;99.90;;;;;;5100229;28;20468;-71
2023/08/08 03:52:31;;;;;;;5.68;1.50;;;13.80;99.90;;;;;;5107830;28;20399;-71
2023/08/08 03:54:56;;;;;;;6.10;1.52;;;13.70;99.90;;;;;;5093025;28;20463;-71
2023/08/08 03:57:22;;;;;;;3.40;1.70;;;13.70;99.90;;;;;;5098377;28;20792;-71
2023/08/08 03:59:47;;;;;;;5.45;1.67;;;13.70;99.90;;;;;;5102537;28;20769;-71
2023/08/08 04:02:13;;;;;;;7.40;1.60;;;13.70;99.90;;;;;;5105686;28;20440;-71
2023/08/08 04:04:39;;;;;;;5.35;1.80;;;13.70;99.90;;;;;;5102101;28;20406;-71
2023/08/08 04:07:04;;;;;;;5.27;1.53;;;13.70;99.90;;;;;;5106436;28;20408;-71
2023/08/08 04:09:31;;;;;;;5.75;1.80;;;13.60;99.90;;;;;;5102604;28;20850;-72
2023/08/08 04:11:56;;;;;;;8.40;1.90;;;13.60;99.90;;;;;;5106456;28;20447;-72
2023/08/08 04:14:22;;;;;;;5.50;1.80;;;13.60;99.90;;;;;;5102171;28;20429;-72
2023/08/08 04:16:48;;;;;;;4.90;1.52;;;13.60;99.90;;;;;;5106820;28;20542;-72
2023/08/08 04:19:13;;;;;;;7.93;1.90;;;13.60;99.90;;;;;;5101916;28;20413;-72
2023/08/08 04:21:39;;;;;;;4.93;1.58;;;13.60;99.90;;;;;;5103582;28;20955;-73
2023/08/08 04:24:07;;;;;;;6.70;1.60;;;13.50;99.90;;;;;;5100923;28;20497;-73
2023/08/08 04:26:33;;;;;;;4.00;1.55;;;13.50;99.90;;;;;;5103982;28;21086;-72
2023/08/08 04:28:59;;;;;;;4.70;1.38;;;13.50;99.90;;;;;;5100056;28;20422;-71
2023/08/08 04:31:25;;;;;;;7.13;1.70;;;13.50;99.90;;;;;;5098517;28;20401;-71
2023/08/08 04:33:52;;;;;;;5.82;1.70;;;13.50;99.90;;;;;;5090117;28;20417;-71
2023/08/08 04:36:18;;;;;;;4.40;1.40;;;13.40;99.90;;;;;;5098156;28;20401;-71
2023/08/08 04:38:43;;;;;;;5.93;1.40;;;13.40;99.90;;;;;;5103153;28;20970;-71
2023/08/08 04:41:09;;;;;;;5.60;1.35;;;13.40;99.90;;;;;;5098070;28;20754;-71
2023/08/08 04:43:34;;;;;;;4.50;1.30;;;13.40;99.90;;;;;;5101734;28;20455;-71
2023/08/08 04:46:00;;;;;;;7.30;1.40;;;13.40;99.90;;;;;;5103796;28;20396;-71
2023/08/08 04:48:26;;;;;;;6.38;1.48;;;13.40;99.90;;;;;;5101813;28;20484;-71
2023/08/08 04:50:51;;;;;;;4.97;1.37;;;13.40;99.90;;;;;;5105790;28;20393;-71
2023/08/08 04:53:17;;;;;;;8.07;1.15;;;13.40;99.90;;;;;;5100896;28;20908;-71
2023/08/08 04:55:42;;;;;;;5.33;1.00;;;13.40;99.90;;;;;;5098274;28;20402;-71
2023/08/08 04:58:08;;;;;;;4.05;1.05;;;13.40;99.90;;;;;;5097924;28;20398;-71
2023/08/08 05:00:34;;;;;;;4.33;1.10;;;13.40;99.90;;;;;;5105910;28;20415;-71
2023/08/08 05:02:59;;;;;;;5.20;0.90;;;13.50;99.90;;;;;;5101677;28;20974;-71
2023/08/08 05:05:25;;;;;;;4.03;0.97;;;13.50;99.90;;;;;;5104455;28;20408;-71
2023/08/08 05:07:51;;;;;;;6.00;0.85;;;13.50;99.90;;;;;;5099819;28;20402;-71
2023/08/08 05:10:16;;;;;;;5.07;0.90;;;13.60;99.90;;;;;;5104243;28;20404;-71
2023/08/08 05:12:42;;;;;;;4.00;0.70;;;13.70;99.90;;;;;;5101132;28;20402;-71
2023/08/08 05:15:08;;;;;;;3.27;1.00;;;13.70;99.90;;;;;;5104112;28;20766;-71
2023/08/08 05:17:34;;;;;;;4.38;1.00;;;13.80;99.90;;;;;;5100574;28;20402;-71
2023/08/08 05:19:59;;;;;;;3.97;1.13;;;13.90;99.90;;;;;;5103785;28;20894;-71
2023/08/08 05:22:26;;;;;;;3.63;1.00;;;13.90;99.90;;;;;;5101010;28;20422;-71
2023/08/08 05:24:51;;;;;;;6.00;1.10;;;14.00;99.90;;;;;;5096882;28;20413;-71
2023/08/08 05:27:17;;;;;;;4.20;1.00;;;14.10;99.90;;;;;;5089556;28;20527;-71
2023/08/08 05:29:43;;;;;;;5.60;1.50;;;14.10;99.90;;;;;;5103701;28;20420;-71
2023/08/08 05:32:08;;;;;;;4.05;0.80;;;14.20;99.90;;;;;;5099714;28;20402;-71
2023/08/08 05:34:34;;;;;;;5.83;1.10;;;14.20;99.90;;;;;;5089514;28;20416;-71
2023/08/08 05:37:00;;;;;;;5.25;1.00;;;14.30;99.90;;;;;;5098909;28;20934;-71
2023/08/08 05:39:26;;;;;;;4.80;1.00;;;14.40;99.90;;;;;;5105366;28;20453;-71
2023/08/08 05:41:52;;;;;;;4.20;0.90;;;14.40;99.90;;;;;;5101226;28;20418;-71
2023/08/08 05:44:18;;;;;;;3.53;0.90;;;14.40;99.90;;;;;;5103719;28;20396;-71
2023/08/08 05:46:43;;;;;;;7.28;1.23;;;14.50;99.90;;;;;;5101014;28;20405;-71
2023/08/08 05:49:09;;;;;;;6.70;1.20;;;14.50;99.90;;;;;;5103426;28;20812;-71
2023/08/08 05:51:34;;;;;;;5.95;1.35;;;14.60;99.90;;;;;;5099597;28;20410;-71
2023/08/08 05:54:00;;;;;;;4.63;0.77;;;14.60;99.90;;;;;;5102184;28;20476;-71
2023/08/08 05:56:34;;;;;;;5.57;0.80;;;14.70;99.90;;;;;;5100223;28;20480;-71
2023/08/08 05:59:00;;;;;;;4.45;0.98;;;14.80;99.90;;;;;;5102762;28;20396;-71
2023/08/08 06:01:25;;;;;;;4.73;0.97;;;14.80;99.90;;;;;;5090816;28;20414;-71
2023/08/08 06:03:52;;;;;;;6.38;1.30;;;14.80;99.90;;;;;;5096917;28;20419;-71
2023/08/08 06:06:18;;;;;;;4.78;1.02;;;14.80;99.90;;;;;;5096852;28;21040;-71
2023/08/08 06:08:44;;;;;;;5.43;1.23;;;14.80;99.90;;;;;;5102150;28;20405;-71
2023/08/08 06:11:09;;;;;;;7.00;0.90;;;14.90;99.90;;;;;;5098376;28;20492;-71
2023/08/08 06:13:36;;;;;;;5.63;0.90;;;14.90;99.90;;;;;;5092967;28;20388;-72
2023/08/08 06:16:03;;;;;;;3.90;0.82;;;14.90;99.90;;;;;;5096116;28;20398;-71
2023/08/08 06:18:28;;;;;;;8.93;1.50;;;14.90;99.90;;;;;;5100364;28;20924;-71
2023/08/08 06:20:54;;;;;;;4.53;1.03;;;15.00;99.90;;;;;;5097086;28;20402;-71
2023/08/08 06:23:20;;;;;;;5.93;1.02;;;15.00;99.90;;;;;;5100503;28;20549;-71
2023/08/08 06:25:45;;;;;;;7.23;1.30;;;15.00;99.90;;;;;;5096566;28;20401;-72
2023/08/08 06:28:11;;;;;;;4.20;1.02;;;14.90;99.90;;;;;;5098421;28;20484;-71
2023/08/08 06:30:37;;;;;;;4.13;0.90;;;14.90;99.90;;;;;;5096393;27;20398;-71
2023/08/08 06:33:03;;;;;;;6.00;1.20;;;14.90;99.90;;;;;;5094762;28;20485;-71
2023/08/08 06:35:28;;;;;;;5.68;0.95;;;14.90;99.90;;;;;;5088060;28;20511;-71
2023/08/08 06:37:54;;;;;;;5.30;0.93;;;15.00;99.90;;;;;;5104903;28;20475;-71
2023/08/08 06:40:21;;;;;;;8.07;1.45;;;15.00;99.90;;;;;;5101031;28;20519;-71
2023/08/08 06:42:46;;;;;;;4.05;0.80;;;15.10;99.90;;;;;;5104205;28;20446;-71
2023/08/08 06:45:12;;;;;;;4.13;0.70;;;15.10;99.90;;;;;;5100126;28;20402;-71
2023/08/08 06:47:38;;;;;;;5.13;0.87;;;15.20;99.90;;;;;;5104753;28;20963;-71
2023/08/08 06:50:05;;;;;;;6.13;0.80;;;15.30;99.90;;;;;;5100520;28;20458;-71
2023/08/08 06:52:30;;;;;;;5.30;1.10;;;15.40;99.90;;;;;;5103349;28;20392;-71
2023/08/08 06:54:56;;;;;;;4.57;1.03;;;15.40;99.90;;;;;;5099797;28;20462;-71
2023/08/08 06:57:22;;;;;;;5.72;0.93;;;15.50;99.90;;;;;;5097442;28;20408;-72
2023/08/08 06:59:50;;;;;;;5.17;0.90;;;15.60;99.90;;;;;;5087907;28;20402;-72
2023/08/08 07:02:17;;;;;;;5.18;1.08;;;15.70;99.90;;;;;;5103709;28;20428;-71
2023/08/08 07:04:42;;;;;;;4.65;0.77;;;15.90;99.90;;;;;;5099182;28;21256;-71
2023/08/08 07:07:08;;;;;;;5.70;1.10;;;15.90;99.90;;;;;;5103649;28;20411;-71
2023/08/08 07:09:34;;;;;;;3.65;0.80;;;16.00;99.90;;;;;;5098349;28;20405;-71
2023/08/08 07:12:00;;;;;;;4.85;0.80;;;16.10;99.90;;;;;;5103325;28;20404;-71
2023/08/08 07:14:25;;;;;;;7.97;0.90;;;16.20;99.90;;;;;;5097581;28;20405;-72
2023/08/08 07:16:53;;;;;;;5.17;1.00;;;16.30;99.90;;;;;;5095582;28;20402;-71
2023/08/08 07:19:19;;;;;;;5.32;0.90;;;16.30;99.90;;;;;;5095695;28;20398;-71
2023/08/08 07:21:44;;;;;;;5.80;0.77;;;16.30;99.90;;;;;;5101708;28;20427;-71
2023/08/08 07:24:10;;;;;;;6.80;1.15;;;16.50;99.90;;;;;;5085900;28;20426;-71
2023/08/08 07:26:35;;;;;;;3.93;0.73;;;16.50;99.90;;;;;;5097500;28;20436;-71
2023/08/08 07:29:01;;;;;;;5.75;0.77;;;16.70;99.90;;;;;;5099475;28;21663;-70
2023/08/08 07:31:27;;;;;;;5.47;0.80;;;16.70;99.90;;;;;;5104293;28;20407;-70
2023/08/08 07:33:52;;;;;;;4.63;0.90;;;16.70;99.90;;;;;;5100439;28;20398;-71
2023/08/08 07:36:18;;;;;;;3.53;0.90;;;16.70;99.90;;;;;;5092619;28;20433;-71
2023/08/08 07:38:43;;;;;;;5.73;0.60;;;16.70;99.90;;;;;;5089359;28;20409;-71
2023/08/08 07:41:10;;;;;;;4.93;1.08;;;16.80;99.90;;;;;;5102117;28;20388;-71
2023/08/08 07:43:35;;;;;;;5.82;1.08;;;16.90;99.90;;;;;;5087964;28;20418;-71
2023/08/08 07:46:01;;;;;;;5.03;0.60;;;17.00;99.90;;;;;;5105348;28;20404;-71
2023/08/08 07:48:26;;;;;;;3.90;0.50;;;17.20;99.90;;;;;;5091309;28;20396;-71
2023/08/08 07:50:52;;;;;;;6.45;1.10;;;17.20;99.90;;;;;;5103852;28;20400;-71
2023/08/08 07:53:18;;;;;;;5.47;0.80;;;17.30;99.90;;;;;;5080632;28;20787;-72
2023/08/08 07:55:43;;;;;;;4.95;0.50;;;17.30;99.90;;;;;;5096308;28;20491;-71
2023/08/08 07:58:09;;;;;;;4.60;0.80;;;17.40;99.90;;;;;;5097941;28;20400;-72
2023/08/08 08:00:35;;;;;;;7.03;0.80;;;17.50;99.90;;;;;;5102196;28;20454;-72
2023/08/08 08:03:01;;;;;;;4.83;0.70;;;17.60;99.90;;;;;;5088435;28;20429;-72
2023/08/08 08:05:26;;;;;;;3.55;0.55;;;17.60;99.90;;;;;;5093981;28;20400;-71
2023/08/08 08:07:52;;;;;;;4.73;0.90;;;17.70;99.90;;;;;;5090656;28;20398;-72
2023/08/08 08:10:18;;;;;;;5.50;0.77;;;17.60;99.90;;;;;;5100265;28;20393;-72
2023/08/08 08:12:43;;;;;;;5.87;1.20;;;17.40;99.90;;;;;;5097443;28;20398;-71
2023/08/08 08:15:10;;;;;;;5.82;0.82;;;17.20;99.90;;;;;;5097002;28;20420;-71
2023/08/08 08:17:35;;;;;;;5.32;0.70;;;17.00;99.90;;;;;;5090771;28;20429;-71
2023/08/08 08:20:05;;;;;;;6.90;0.90;;;17.00;99.90;;;;;;5093528;28;20878;-71
2023/08/08 08:22:31;;;;;;;5.20;0.75;;;17.00;99.90;;;;;;5092277;28;20783;-71
2023/08/08 08:24:57;;;;;;;3.95;0.60;;;17.00;99.90;;;;;;5096044;28;20392;-71
2023/08/08 08:27:22;;;;;;;7.33;0.80;;;17.20;99.90;;;;;;5093583;28;20909;-71
2023/08/08 08:29:48;;;;;;;5.07;0.52;;;17.30;99.90;;;;;;5093220;28;20396;-72
2023/08/08 08:32:14;;;;;;;5.80;0.70;;;17.40;99.90;;;;;;5091677;28;20410;-71
2023/08/08 08:34:39;;;;;;;6.97;0.88;;;17.40;99.90;;;;;;5092855;28;20406;-72
2023/08/08 08:37:05;;;;;;;5.20;0.70;;;17.50;99.90;;;;;;5089060;28;20402;-71
2023/08/08 08:39:31;;;;;;;4.97;0.73;;;17.50;99.90;;;;;;5105124;28;20404;-71
2023/08/08 08:42:03;;;;;;;5.60;0.70;;;17.50;99.90;;;;;;5102431;28;20494;-71
2023/08/08 08:44:31;;;;;;;5.95;0.90;;;17.50;99.90;;;;;;5104108;28;20396;-72
2023/08/08 08:47:03;;;;;;;4.83;0.60;;;17.50;99.90;;;;;;5087997;28;20461;-71
2023/08/08 08:49:31;;;;;;;4.45;0.60;;;17.50;99.90;;;;;;5098019;28;20922;-71
2023/08/08 08:52:04;;;;;;;7.72;1.00;;;17.50;99.90;;;;;;5089010;28;20432;-71
2023/08/08 08:54:31;;;;;;;4.68;0.68;;;17.50;99.90;;;;;;5098376;28;20403;-71
2023/08/08 08:56:57;;;;;;;6.68;0.85;;;17.60;99.90;;;;;;5103281;28;20485;-71
2023/08/08 08:59:23;;;;;;;5.15;0.63;;;17.60;99.90;;;;;;5103289;28;20432;-71
2023/08/08 09:01:50;;;;;;;4.20;0.98;;;17.60;99.90;;;;;;5102805;28;20478;-71
2023/08/08 09:04:19;;;;;;;4.53;0.70;;;17.50;99.90;;;;;;5104346;28;20406;-71
2023/08/08 09:06:47;;;;;;;6.55;1.05;;;17.40;99.90;;;;;;5101174;28;20778;-71
2023/08/08 09:09:15;;;;;;;4.18;0.80;;;17.30;99.90;;;;;;5102532;28;20457;-71
2023/08/08 09:11:42;;;;;;;5.03;0.80;;;17.20;99.90;;;;;;5102529;28;20426;-71
2023/08/08 09:14:25;;;;;;;3.78;0.60;;;17.20;99.90;;;;;;5093493;28;20406;-72
2023/08/08 09:16:56;;;;;;;4.40;0.65;;;17.20;99.90;;;;;;5096811;28;20412;-71
2023/08/08 09:19:23;;;;;;;3.45;0.63;;;17.20;99.90;;;;;;5091558;28;20464;-72
2023/08/08 09:21:51;;;;;;;4.30;0.90;;;17.30;99.90;;;;;;5104778;28;20953;-72
2023/08/08 09:24:17;;;;;;;4.60;0.70;;;17.60;99.90;;;;;;5082117;28;20399;-72
2023/08/08 09:26:44;;;;;;;6.20;1.02;;;17.90;99.90;;;;;;5097124;28;20398;-72
2023/08/08 09:29:14;;;;;;;9.65;1.63;;;18.10;99.90;;;;;;5098726;28;20485;-73
2023/08/08 09:31:40;;;;;;;5.78;1.10;;;17.80;99.90;;;;;;5095292;28;20398;-72
2023/08/08 09:34:06;;;;;;;5.13;0.90;;;17.20;99.90;;;;;;5096965;28;20398;-72
2023/08/08 09:36:33;;;;;;;5.87;0.80;;;16.60;99.90;;;;;;5098759;28;20404;-72
2023/08/08 09:38:59;;;;;;;5.75;0.77;;;16.20;99.90;;;;;;5099950;28;20394;-72
2023/08/08 09:41:24;;;;;;;5.80;0.70;;;16.10;99.90;;;;;;5098127;28;20424;-72
2023/08/08 09:43:52;;;;;;;5.55;0.70;;;16.10;99.90;;;;;;5100726;28;20417;-72
2023/08/08 09:46:21;;;;;;;4.93;0.60;;;16.20;99.90;;;;;;5096565;28;20406;-72
2023/08/08 09:48:47;;;;;;;5.60;0.80;;;16.20;99.90;;;;;;5087936;28;20417;-72
2023/08/08 09:51:13;;;;;;;3.65;0.70;;;16.10;99.90;;;;;;5088712;28;20419;-72
2023/08/08 09:53:40;;;;;;;6.47;0.77;;;16.00;99.90;;;;;;5089813;28;20810;-72
2023/08/08 09:56:07;;;;;;;5.70;0.90;;;16.00;99.90;;;;;;5088553;28;20435;-73
2023/08/08 09:58:33;;;;;;;4.97;0.95;;;16.10;99.90;;;;;;5089921;28;20406;-72
2023/08/08 10:00:59;;;;;;;4.35;0.80;;;16.10;99.90;;;;;;5089835;28;20398;-72
2023/08/08 10:03:26;;;;;;;5.10;0.80;;;16.00;99.90;;;;;;5089063;28;20455;-72
2023/08/08 10:05:52;;;;;;;6.53;1.13;;;15.90;99.90;;;;;;5088643;28;20440;-72
2023/08/08 10:08:19;;;;;;;4.95;0.60;;;15.90;99.90;;;;;;5088517;28;20441;-72
2023/08/08 10:10:47;;;;;;;4.60;0.67;;;16.20;99.90;;;;;;5088987;28;20394;-72
2023/08/08 10:13:24;;;;;;;4.50;0.68;;;16.80;99.90;;;;;;5088601;28;20398;-72
2023/08/08 10:15:51;;;;;;;3.08;0.57;;;17.20;99.90;;;;;;5088851;28;20409;-72
2023/08/08 10:18:17;;;;;;;5.43;0.73;;;17.10;99.90;;;;;;5105336;28;20450;-72
2023/08/08 10:20:47;;;;;;;4.72;0.60;;;17.10;99.90;;;;;;5095838;28;20413;-72
2023/08/08 10:23:18;;;;;;;5.97;0.90;;;17.50;99.90;;;;;;5087963;28;20465;-72
2023/08/08 10:25:48;;;;;;;4.88;0.85;;;17.90;99.90;;;;;;5088751;28;20414;-72
2023/08/08 10:28:17;;;;;;;4.90;0.68;;;18.00;99.90;;;;;;5097619;28;20466;-72
2023/08/08 10:30:53;;;;;;;3.50;0.60;;;17.90;99.90;;;;;;5108500;28;20505;-72
2023/08/08 10:33:24;;;;;;;4.88;0.57;;;17.60;99.90;;;;;;5093133;28;20497;-72
2023/08/08 10:36:01;;;;;;;5.53;0.80;;;17.30;99.90;;;;;;5087865;28;20519;-73
2023/08/08 10:38:39;;;;;;;6.90;1.03;;;17.20;99.90;;;;;;5103130;28;20766;-72
2023/08/08 10:41:08;;;;;;;3.45;0.70;;;17.50;99.90;;;;;;5089657;28;20459;-72
2023/08/08 10:43:33;;;;;;;4.30;0.73;;;17.90;99.90;;;;;;5082140;28;20410;-72
2023/08/08 10:46:03;;;;;;;6.00;0.80;;;18.40;99.90;;;;;;5075418;28;20407;-72
2023/08/08 10:48:29;;;;;;;4.33;0.77;;;19.00;99.90;;;;;;5084021;28;20448;-72
2023/08/08 10:50:59;;;;;;;5.88;0.70;;;19.40;99.90;;;;;;5076783;28;20418;-72
2023/08/08 10:53:30;;;;;;;5.88;0.60;;;19.20;99.90;;;;;;5084392;28;20409;-72
2023/08/08 10:56:01;;;;;;;3.20;0.47;;;19.00;99.90;;;;;;5075077;28;20407;-72
2023/08/08 10:58:49;;;;;;;3.07;0.70;;;18.90;99.90;;;;;;5079193;28;20412;-72
2023/08/08 11:01:16;;;;;;;4.38;0.50;;;19.30;99.90;;;;;;5073047;28;20403;-72
2023/08/08 11:03:43;;;;;;;4.13;0.50;;;19.70;99.90;;;;;;5083848;28;20436;-73
2023/08/08 11:06:10;;;;;;;4.55;0.90;;;19.90;99.90;;;;;;5089531;28;20415;-72
2023/08/08 11:08:38;;;;;;;5.23;0.87;;;19.70;99.90;;;;;;5076251;28;20407;-72
2023/08/08 11:11:05;;;;;;;4.10;0.80;;;19.60;99.90;;;;;;5075032;28;20406;-71
2023/08/08 11:13:31;;;;;;;5.65;1.20;;;19.40;99.90;;;;;;5078344;28;20411;-71
2023/08/08 11:15:57;;;;;;;4.18;0.70;;;19.10;99.90;;;;;;5093596;28;20402;-71
2023/08/08 11:18:23;;;;;;;3.25;0.82;;;19.00;99.90;;;;;;5098718;28;20408;-71
2023/08/08 11:20:50;;;;;;;5.37;0.80;;;19.20;99.90;;;;;;5098610;28;20406;-71
2023/08/08 11:23:16;;;;;;;5.05;0.70;;;19.70;99.90;;;;;;5102868;28;20420;-71
2023/08/08 11:25:44;;;;;;;3.67;0.60;;;20.00;99.90;;;;;;5099677;28;20433;-72
2023/08/08 11:28:11;;;;;;;5.17;0.60;;;20.00;99.90;;;;;;5085135;28;20498;-72
2023/08/08 11:30:40;;;;;;;4.50;0.50;;;19.80;99.90;;;;;;5098438;28;20464;-72
2023/08/08 11:33:06;;;;;;;4.15;0.60;;;19.40;99.90;;;;;;5095033;28;20788;-72
2023/08/08 11:35:33;;;;;;;4.82;0.80;;;19.00;99.90;;;;;;5090115;28;20437;-71
2023/08/08 11:38:00;;;;;;;3.88;0.70;;;18.70;99.90;;;;;;5104754;28;20426;-71
2023/08/08 11:40:27;;;;;;;5.43;0.68;;;18.50;99.90;;;;;;5098914;28;20832;-71
2023/08/08 11:42:54;;;;;;;5.57;0.70;;;18.30;99.90;;;;;;5091793;28;20467;-71
2023/08/08 11:45:20;;;;;;;6.60;0.70;;;18.10;99.90;;;;;;5097270;28;20929;-72
2023/08/08 11:47:50;;;;;;;4.25;0.50;;;18.10;99.90;;;;;;5095780;28;20398;-71
2023/08/08 11:50:18;;;;;;;5.13;0.60;;;18.60;99.90;;;;;;5092549;28;20908;-71
2023/08/08 11:52:46;;;;;;;3.83;0.60;;;19.20;99.90;;;;;;5103405;28;20957;-71
2023/08/08 11:55:12;;;;;;;3.28;0.55;;;19.70;99.90;;;;;;5097990;28;20496;-71
2023/08/08 11:57:40;;;;;;;3.10;0.50;;;19.90;99.90;;;;;;5102849;28;20942;-72
2023/08/08 12:00:13;;;;;;;3.97;0.60;;;20.30;99.90;;;;;;5092130;28;20410;-72
2023/08/08 12:02:40;;;;;;;6.70;1.00;;;20.40;99.90;;;;;;5086896;28;20434;-72
2023/08/08 12:05:07;;;;;;;4.07;0.50;;;20.30;99.90;;;;;;5090310;28;20905;-71
2023/08/08 12:07:36;;;;;;;3.40;0.40;;;20.00;99.90;;;;;;5083768;28;20488;-72
2023/08/08 12:10:05;;;;;;;3.22;0.47;;;19.70;99.90;;;;;;5098443;28;20415;-71
2023/08/08 12:12:35;;;;;;;4.55;0.60;;;19.50;99.90;;;;;;5104545;28;20401;-71
2023/08/08 12:15:08;;;;;;;4.07;0.70;;;19.30;99.90;;;;;;5103632;28;21283;-72
2023/08/08 12:17:34;;;;;;;6.22;0.90;;;18.90;99.90;;;;;;5103352;28;20410;-72
2023/08/08 12:20:03;;;;;;;6.95;0.70;;;18.60;99.90;;;;;;5099901;28;20406;-72
2023/08/08 12:22:28;;;;;;;6.03;0.77;;;18.70;99.90;;;;;;5098992;28;20448;-72
2023/08/08 12:24:54;;;;;;;4.83;0.70;;;19.10;99.90;;;;;;5091296;28;20402;-72
2023/08/08 12:27:19;;;;;;;4.70;0.68;;;19.50;99.90;;;;;;5090675;28;20398;-72
2023/08/08 12:29:45;;;;;;;8.07;1.13;;;19.90;99.90;;;;;;5105981;28;20409;-72
2023/08/08 12:32:11;;;;;;;4.13;0.53;;;20.10;99.90;;;;;;5102923;28;20802;-72
2023/08/08 12:34:36;;;;;;;4.18;0.60;;;20.30;99.90;;;;;;5099655;28;20822;-72
2023/08/08 12:37:02;;;;;;;4.93;0.57;;;20.20;99.90;;;;;;5100015;28;20780;-72
2023/08/08 12:39:29;;;;;;;5.47;0.70;;;20.00;99.90;;;;;;5105639;28;20401;-72
2023/08/08 12:41:54;;;;;;;4.28;0.60;;;19.80;99.90;;;;;;5102248;28;20425;-72
2023/08/08 12:44:20;;;;;;;3.43;0.50;;;19.80;99.90;;;;;;5105331;28;20392;-72